Time;durP1;ratioP1;P1;durP2;ratioP2;P2;SDS_P1;SDS_P2;PMS_P1;PMS_P2;Temp;Humidity;BMP_temperature;BMP_pressure;BME280_temperature;BME280_humidity;BME280_pressure;Samples;Min_cycle;Max_cycle;Signal;HPM_P1;HPM_P2
2021/04/26 00:00:00;;;;;;;6.37;2.90;;;6.30;99.90;;;;;;5096413;28;20379;-69
2021/04/26 00:02:26;;;;;;;3.93;2.80;;;6.40;99.90;;;;;;5096625;28;20257;-69
2021/04/26 00:04:51;;;;;;;2.70;2.30;;;6.40;99.90;;;;;;5096305;28;20192;-69
2021/04/26 00:07:17;;;;;;;7.20;3.07;;;6.30;99.90;;;;;;5096260;28;20644;-68
2021/04/26 00:09:42;;;;;;;3.20;2.27;;;6.50;99.90;;;;;;5096233;28;20224;-69
2021/04/26 00:12:08;;;;;;;4.30;2.53;;;6.50;99.90;;;;;;5096447;28;20172;-68
2021/04/26 00:14:34;;;;;;;4.40;2.50;;;6.50;99.90;;;;;;5094800;28;20290;-69
2021/04/26 00:16:59;;;;;;;4.60;2.97;;;6.50;99.90;;;;;;5096391;28;20167;-68
2021/04/26 00:19:25;;;;;;;9.97;3.10;;;6.50;99.90;;;;;;5096361;28;20190;-69
2021/04/26 00:21:50;;;;;;;10.73;2.90;;;6.40;99.90;;;;;;5094747;28;20172;-69
2021/04/26 00:24:16;;;;;;;6.67;2.60;;;6.20;99.90;;;;;;5096043;28;20187;-69
2021/04/26 00:26:41;;;;;;;8.90;3.00;;;6.20;99.90;;;;;;5095943;28;20708;-68
2021/04/26 00:29:07;;;;;;;5.03;2.87;;;6.20;99.90;;;;;;5095932;28;20208;-68
2021/04/26 00:31:33;;;;;;;8.63;3.23;;;6.10;99.90;;;;;;5095791;28;20170;-69
2021/04/26 00:33:58;;;;;;;5.97;2.33;;;6.10;99.90;;;;;;5095892;28;20183;-68
2021/04/26 00:36:24;;;;;;;3.87;3.10;;;6.10;99.90;;;;;;5095676;28;20202;-69
2021/04/26 00:38:49;;;;;;;5.00;3.33;;;6.20;99.90;;;;;;5095705;28;20174;-68
2021/04/26 00:41:15;;;;;;;9.80;2.47;;;6.10;99.90;;;;;;5095635;28;20536;-69
2021/04/26 00:43:40;;;;;;;4.63;3.13;;;6.10;99.90;;;;;;5095860;28;20183;-68
2021/04/26 00:46:06;;;;;;;13.77;3.30;;;5.90;99.90;;;;;;5094911;28;20167;-69
2021/04/26 00:48:32;;;;;;;5.60;3.63;;;6.10;99.90;;;;;;5094132;28;20190;-68
2021/04/26 00:50:57;;;;;;;7.90;2.30;;;6.20;99.90;;;;;;5096004;28;20380;-67
2021/04/26 00:53:23;;;;;;;6.93;2.70;;;5.80;99.90;;;;;;5095389;28;20201;-68
2021/04/26 00:55:49;;;;;;;5.13;2.72;;;5.80;99.90;;;;;;5095311;28;20192;-68
2021/04/26 00:58:15;;;;;;;5.07;2.77;;;5.80;99.90;;;;;;5095355;28;20490;-69
2021/04/26 01:00:41;;;;;;;4.80;2.30;;;5.90;99.90;;;;;;5095292;28;20198;-68
2021/04/26 01:03:06;;;;;;;5.47;2.67;;;5.90;99.90;;;;;;5095665;28;20410;-69
2021/04/26 01:05:34;;;;;;;7.73;3.00;;;5.90;99.90;;;;;;5093940;28;20660;-68
2021/04/26 01:08:00;;;;;;;4.60;3.10;;;5.50;99.90;;;;;;5095232;28;20183;-68
2021/04/26 01:10:29;;;;;;;5.00;2.22;;;5.70;99.90;;;;;;5095167;28;20163;-68
2021/04/26 01:13:15;;;;;;;7.97;3.83;;;5.70;99.90;;;;;;5095010;28;20167;-69
2021/04/26 01:15:54;;;;;;;7.00;2.38;;;5.60;99.90;;;;;;5095034;28;20191;-69
2021/04/26 01:18:43;;;;;;;2.30;2.03;;;5.60;99.90;;;;;;5095023;28;20152;-69
2021/04/26 01:21:42;;;;;;;10.02;2.88;;;5.80;99.90;;;;;;5095349;28;20625;-69
2021/04/26 01:24:17;;;;;;;4.55;2.40;;;5.40;99.90;;;;;;5093950;28;20196;-69
2021/04/26 01:27:01;;;;;;;3.00;2.38;;;5.50;99.90;;;;;;5094880;28;20159;-68
2021/04/26 01:30:06;;;;;;;8.73;2.60;;;5.50;99.90;;;;;;5095389;28;20162;-71
2021/04/26 01:32:42;;;;;;;7.78;2.80;;;5.40;99.90;;;;;;5093356;28;20167;-70
2021/04/26 01:35:11;;;;;;;2.45;2.10;;;5.60;99.90;;;;;;5094549;28;20195;-69
2021/04/26 01:37:37;;;;;;;5.35;2.50;;;5.30;99.90;;;;;;5094854;28;20167;-68
2021/04/26 01:40:10;;;;;;;7.85;2.90;;;5.50;99.90;;;;;;5094945;28;20179;-69
2021/04/26 01:42:38;;;;;;;6.00;2.63;;;5.40;99.90;;;;;;5095225;28;20156;-69
2021/04/26 01:45:07;;;;;;;3.58;2.33;;;5.40;99.90;;;;;;5094496;28;20278;-69
2021/04/26 01:47:34;;;;;;;5.47;2.42;;;5.30;99.90;;;;;;5094400;28;20258;-68
2021/04/26 01:50:01;;;;;;;6.35;2.25;;;5.30;99.90;;;;;;5094673;28;20536;-68
2021/04/26 01:52:27;;;;;;;6.07;2.58;;;5.30;99.90;;;;;;5094605;28;20170;-68
2021/04/26 01:54:55;;;;;;;7.30;3.00;;;5.30;99.90;;;;;;5094378;28;20207;-68
2021/04/26 01:57:22;;;;;;;6.53;2.28;;;5.30;99.90;;;;;;5094123;28;20167;-68
2021/04/26 01:59:48;;;;;;;4.80;2.50;;;5.30;99.90;;;;;;5094199;28;20167;-69
2021/04/26 02:02:16;;;;;;;6.00;2.58;;;5.30;99.90;;;;;;5094392;28;20171;-69
2021/04/26 02:04:43;;;;;;;3.35;2.72;;;5.40;99.90;;;;;;5094016;28;20192;-69
2021/04/26 02:07:10;;;;;;;2.70;2.25;;;5.30;99.90;;;;;;5094127;28;20175;-69
2021/04/26 02:09:39;;;;;;;7.13;3.45;;;5.20;99.90;;;;;;5094017;28;20252;-69
2021/04/26 02:12:10;;;;;;;7.53;2.70;;;5.30;99.90;;;;;;5094846;28;20506;-69
2021/04/26 02:14:36;;;;;;;5.10;2.45;;;5.30;99.90;;;;;;5093832;28;20286;-69
2021/04/26 02:17:04;;;;;;;3.47;1.70;;;5.00;99.90;;;;;;5093988;28;20195;-69
2021/04/26 02:19:30;;;;;;;6.85;2.70;;;5.30;99.90;;;;;;5094158;28;20417;-69
2021/04/26 02:21:55;;;;;;;4.63;3.10;;;5.20;99.90;;;;;;5093973;28;20198;-69
2021/04/26 02:24:21;;;;;;;4.13;2.33;;;5.20;99.90;;;;;;5094262;28;20187;-69
2021/04/26 02:26:47;;;;;;;3.80;2.80;;;5.10;99.90;;;;;;5093745;28;20488;-69
2021/04/26 02:29:12;;;;;;;4.97;2.30;;;5.30;99.90;;;;;;5093713;28;20196;-69
2021/04/26 02:31:40;;;;;;;3.67;2.60;;;5.30;99.90;;;;;;5093640;28;20174;-69
2021/04/26 02:34:19;;;;;;;4.90;2.45;;;5.10;99.90;;;;;;5093822;28;20278;-69
2021/04/26 02:36:50;;;;;;;4.45;2.63;;;5.20;99.90;;;;;;5093914;28;20684;-69
2021/04/26 02:39:17;;;;;;;5.20;2.45;;;5.10;99.90;;;;;;5093527;28;20160;-69
2021/04/26 02:41:46;;;;;;;3.80;2.53;;;5.10;99.90;;;;;;5093498;28;20167;-68
2021/04/26 02:44:25;;;;;;;3.08;2.50;;;5.00;99.90;;;;;;5093561;28;20282;-69
2021/04/26 02:47:04;;;;;;;5.22;2.28;;;4.70;99.90;;;;;;5093485;28;20163;-69
2021/04/26 02:49:30;;;;;;;4.00;2.70;;;4.80;99.90;;;;;;5093423;28;20202;-69
2021/04/26 02:51:56;;;;;;;10.57;2.45;;;4.80;99.90;;;;;;5093358;28;20167;-69
2021/04/26 02:54:23;;;;;;;4.50;3.00;;;4.70;99.90;;;;;;5093129;28;20195;-68
2021/04/26 02:56:50;;;;;;;4.65;3.33;;;4.70;99.90;;;;;;5093295;28;20182;-69
2021/04/26 02:59:19;;;;;;;4.80;2.72;;;4.60;99.90;;;;;;5093483;28;20179;-69
2021/04/26 03:01:46;;;;;;;3.10;2.50;;;4.60;99.90;;;;;;5093230;28;20159;-69
2021/04/26 03:04:12;;;;;;;14.07;3.15;;;4.60;99.90;;;;;;5093073;28;20206;-69
2021/04/26 03:06:39;;;;;;;8.88;2.60;;;4.60;99.90;;;;;;5093088;28;20251;-69
2021/04/26 03:09:05;;;;;;;4.13;2.35;;;4.30;99.90;;;;;;5092573;28;20171;-69
2021/04/26 03:11:31;;;;;;;14.38;4.05;;;4.40;99.90;;;;;;5093300;28;20179;-69
2021/04/26 03:13:59;;;;;;;3.92;2.10;;;4.40;99.90;;;;;;5092980;28;20188;-69
2021/04/26 03:16:27;;;;;;;5.70;2.80;;;4.60;99.90;;;;;;5092954;28;20191;-69
2021/04/26 03:18:52;;;;;;;5.10;2.13;;;4.70;99.90;;;;;;5093040;28;20170;-69
2021/04/26 03:21:18;;;;;;;5.00;2.30;;;4.70;99.90;;;;;;5093272;28;20163;-69
2021/04/26 03:23:44;;;;;;;6.25;3.08;;;4.70;99.90;;;;;;5091529;28;20191;-69
2021/04/26 03:26:11;;;;;;;4.70;2.40;;;4.80;99.90;;;;;;5093148;28;20347;-69
2021/04/26 03:28:40;;;;;;;8.15;2.80;;;4.50;99.90;;;;;;5092852;28;20167;-69
2021/04/26 03:31:07;;;;;;;5.53;2.17;;;4.70;99.90;;;;;;5092793;28;20293;-69
2021/04/26 03:33:34;;;;;;;5.78;2.60;;;4.60;99.90;;;;;;5093071;28;20598;-69
2021/04/26 03:36:00;;;;;;;4.00;2.80;;;4.70;99.90;;;;;;5093064;28;20548;-69
2021/04/26 03:38:26;;;;;;;8.45;2.40;;;4.80;99.90;;;;;;5093046;28;20167;-69
2021/04/26 03:40:54;;;;;;;6.90;3.75;;;4.80;99.90;;;;;;5092728;28;20175;-69
2021/04/26 03:43:20;;;;;;;4.13;2.67;;;4.60;99.90;;;;;;5092725;28;20179;-69
2021/04/26 03:45:46;;;;;;;6.63;2.45;;;4.60;99.90;;;;;;5092730;28;20187;-69
2021/04/26 03:48:12;;;;;;;6.00;2.90;;;4.50;99.90;;;;;;5092658;28;20171;-70
2021/04/26 03:50:37;;;;;;;3.90;3.10;;;4.50;99.90;;;;;;5092722;28;20174;-69
2021/04/26 03:53:03;;;;;;;5.50;2.70;;;4.60;99.90;;;;;;5092628;28;20171;-69
2021/04/26 03:55:29;;;;;;;3.53;2.43;;;4.50;99.90;;;;;;5092583;28;20594;-69
2021/04/26 03:57:55;;;;;;;8.67;3.40;;;4.50;99.90;;;;;;5092926;28;20593;-69
2021/04/26 04:00:21;;;;;;;7.00;2.30;;;4.50;99.90;;;;;;5093147;28;20468;-69
2021/04/26 04:02:47;;;;;;;3.33;2.55;;;4.70;99.90;;;;;;5092487;28;20170;-69
2021/04/26 04:05:14;;;;;;;7.03;2.92;;;4.50;99.90;;;;;;5091134;28;20261;-69
2021/04/26 04:07:40;;;;;;;3.35;2.45;;;4.40;99.90;;;;;;5092557;28;20702;-69
2021/04/26 04:10:08;;;;;;;6.03;2.67;;;4.60;99.90;;;;;;5092516;28;20187;-69
2021/04/26 04:12:34;;;;;;;2.65;1.95;;;4.60;99.90;;;;;;5092385;28;20408;-69
2021/04/26 04:15:00;;;;;;;4.27;2.77;;;4.60;99.90;;;;;;5092460;28;20687;-69
2021/04/26 04:17:26;;;;;;;5.33;2.67;;;4.60;99.90;;;;;;5092419;28;20947;-69
2021/04/26 04:19:52;;;;;;;3.05;1.85;;;4.50;99.90;;;;;;5093246;28;20401;-69
2021/04/26 04:22:17;;;;;;;8.10;2.40;;;4.50;99.90;;;;;;5096200;28;20171;-69
2021/04/26 04:24:43;;;;;;;7.13;2.93;;;4.70;99.90;;;;;;5096048;28;20193;-69
2021/04/26 04:27:09;;;;;;;3.22;2.40;;;4.50;99.90;;;;;;5096571;28;20493;-69
2021/04/26 04:29:35;;;;;;;4.50;2.80;;;4.60;99.90;;;;;;5096067;28;20201;-69
2021/04/26 04:32:00;;;;;;;5.73;3.10;;;4.80;99.90;;;;;;5096034;28;20217;-69
2021/04/26 04:34:26;;;;;;;11.13;4.00;;;4.60;99.90;;;;;;5095828;28;20187;-69
2021/04/26 04:36:51;;;;;;;7.40;3.03;;;4.70;99.90;;;;;;5095930;28;20513;-69
2021/04/26 04:39:17;;;;;;;4.23;2.60;;;4.70;99.90;;;;;;5095756;28;20175;-69
2021/04/26 04:41:43;;;;;;;7.73;2.20;;;4.50;99.90;;;;;;5096080;28;20368;-69
2021/04/26 04:44:08;;;;;;;6.23;2.50;;;4.60;99.90;;;;;;5095703;28;20187;-69
2021/04/26 04:46:34;;;;;;;5.87;2.47;;;4.50;99.90;;;;;;5095959;28;20254;-69
2021/04/26 04:48:59;;;;;;;4.47;2.90;;;4.50;99.90;;;;;;5095608;28;20224;-69
2021/04/26 04:51:25;;;;;;;3.93;2.30;;;4.60;99.90;;;;;;5095870;28;20579;-69
2021/04/26 04:53:53;;;;;;;5.40;2.80;;;4.50;99.90;;;;;;5095505;28;20195;-69
2021/04/26 04:56:18;;;;;;;3.60;2.63;;;4.60;99.90;;;;;;5095566;28;20430;-69
2021/04/26 04:58:44;;;;;;;5.10;1.87;;;4.60;99.90;;;;;;5095485;28;20175;-70
2021/04/26 05:01:10;;;;;;;5.17;2.70;;;4.80;99.90;;;;;;5095219;28;20167;-69
2021/04/26 05:03:35;;;;;;;4.30;2.37;;;4.60;99.90;;;;;;5095489;28;20184;-69
2021/04/26 05:06:01;;;;;;;2.40;2.07;;;4.70;99.90;;;;;;5095361;28;20228;-69
2021/04/26 05:08:26;;;;;;;5.50;2.67;;;4.70;99.90;;;;;;5093950;28;20187;-69
2021/04/26 05:10:52;;;;;;;9.60;2.43;;;4.90;99.90;;;;;;5095461;28;20380;-69
2021/04/26 05:13:17;;;;;;;4.33;2.40;;;4.90;99.90;;;;;;5095255;28;20194;-69
2021/04/26 05:15:43;;;;;;;3.60;2.23;;;5.20;99.90;;;;;;5094921;28;20662;-69
2021/04/26 05:18:09;;;;;;;5.60;2.10;;;5.30;99.90;;;;;;5094884;28;20249;-69
2021/04/26 05:20:35;;;;;;;4.43;2.60;;;5.30;99.90;;;;;;5095343;28;20630;-69
2021/04/26 05:23:01;;;;;;;6.40;2.30;;;5.30;99.90;;;;;;5094966;28;20376;-69
2021/04/26 05:25:27;;;;;;;7.90;2.50;;;5.60;99.90;;;;;;5094802;28;20221;-68
2021/04/26 05:27:52;;;;;;;6.50;2.30;;;5.40;99.90;;;;;;5094596;28;20597;-69
2021/04/26 05:30:18;;;;;;;5.20;1.90;;;5.30;99.90;;;;;;5093340;28;20423;-68
2021/04/26 05:32:44;;;;;;;7.60;3.10;;;5.40;99.90;;;;;;5094290;28;20171;-69
2021/04/26 05:35:10;;;;;;;3.73;2.40;;;5.40;99.90;;;;;;5094485;28;20195;-69
2021/04/26 05:37:36;;;;;;;4.50;2.60;;;5.60;99.90;;;;;;5095115;28;20168;-68
2021/04/26 05:40:02;;;;;;;2.47;2.27;;;5.80;99.90;;;;;;5094398;28;20792;-68
2021/04/26 05:42:27;;;;;;;6.22;2.53;;;5.70;99.90;;;;;;5094334;28;20240;-70
2021/04/26 05:44:53;;;;;;;4.90;2.60;;;5.90;99.90;;;;;;5094503;28;20763;-69
2021/04/26 05:47:18;;;;;;;5.23;3.17;;;6.10;99.90;;;;;;5093883;28;20255;-69
2021/04/26 05:49:44;;;;;;;4.30;1.83;;;6.30;99.90;;;;;;5094510;28;20182;-69
2021/04/26 05:52:09;;;;;;;4.20;2.07;;;6.10;99.90;;;;;;5094201;28;20168;-69
2021/04/26 05:54:35;;;;;;;5.63;2.40;;;6.30;99.90;;;;;;5093828;28;20736;-68
2021/04/26 05:57:00;;;;;;;18.83;3.23;;;6.50;99.90;;;;;;5094142;28;20505;-69
2021/04/26 05:59:26;;;;;;;3.17;2.03;;;6.60;99.90;;;;;;5094022;28;20160;-69
2021/04/26 06:01:51;;;;;;;4.77;2.33;;;6.60;99.90;;;;;;5094018;28;20164;-69
2021/04/26 06:04:17;;;;;;;7.43;2.30;;;6.50;99.90;;;;;;5093936;28;20195;-69
2021/04/26 06:06:43;;;;;;;9.50;2.87;;;6.60;99.90;;;;;;5093731;28;20237;-69
2021/04/26 06:09:08;;;;;;;5.33;2.57;;;6.70;99.90;;;;;;5093616;28;20205;-69
2021/04/26 06:11:34;;;;;;;7.80;2.40;;;6.90;99.90;;;;;;5093798;28;20540;-68
2021/04/26 06:13:59;;;;;;;5.30;2.23;;;7.10;99.90;;;;;;5093956;28;20206;-69
2021/04/26 06:16:25;;;;;;;7.37;2.70;;;7.30;99.90;;;;;;5093692;28;20194;-69
2021/04/26 06:18:50;;;;;;;5.00;2.10;;;7.20;99.90;;;;;;5093810;28;20246;-68
2021/04/26 06:21:16;;;;;;;4.57;2.17;;;7.30;99.90;;;;;;5093492;28;20212;-68
2021/04/26 06:23:41;;;;;;;5.40;2.90;;;7.50;99.90;;;;;;5093654;28;20191;-69
2021/04/26 06:26:07;;;;;;;7.90;2.13;;;7.60;99.90;;;;;;5093528;28;20640;-69
2021/04/26 06:28:32;;;;;;;9.80;1.90;;;7.60;99.90;;;;;;5094202;28;20163;-68
2021/04/26 06:30:58;;;;;;;4.97;2.00;;;7.80;99.90;;;;;;5092123;28;20644;-68
2021/04/26 06:33:24;;;;;;;4.03;2.20;;;8.00;99.90;;;;;;5093574;28;20220;-68
2021/04/26 06:35:51;;;;;;;6.77;2.40;;;8.20;99.90;;;;;;5093409;28;20195;-69
2021/04/26 06:38:18;;;;;;;3.40;2.13;;;8.20;99.90;;;;;;5093338;28;20655;-68
2021/04/26 06:40:44;;;;;;;2.97;1.50;;;8.40;99.90;;;;;;5093584;28;20193;-67
2021/04/26 06:43:11;;;;;;;5.83;2.00;;;8.20;99.90;;;;;;5092326;28;20252;-69
2021/04/26 06:45:41;;;;;;;4.07;1.60;;;8.20;99.90;;;;;;5092865;28;20506;-68
2021/04/26 06:48:07;;;;;;;2.50;1.90;;;8.10;99.90;;;;;;5092933;28;20221;-68
2021/04/26 06:50:33;;;;;;;5.45;1.83;;;8.40;99.90;;;;;;5093384;28;20176;-69
2021/04/26 06:52:59;;;;;;;3.33;2.17;;;8.30;99.90;;;;;;5092955;28;20241;-69
2021/04/26 06:55:25;;;;;;;6.53;2.03;;;8.20;99.90;;;;;;5092990;28;20197;-69
2021/04/26 06:57:52;;;;;;;2.83;1.30;;;8.60;99.90;;;;;;5093201;28;20383;-69
2021/04/26 07:00:18;;;;;;;3.13;1.67;;;8.70;99.90;;;;;;5093393;28;20645;-70
2021/04/26 07:02:44;;;;;;;2.78;1.55;;;8.70;99.90;;;;;;5092923;28;20186;-69
2021/04/26 07:05:10;;;;;;;3.07;1.70;;;8.80;99.90;;;;;;5092894;28;20271;-69
2021/04/26 07:07:36;;;;;;;3.20;1.77;;;9.00;99.90;;;;;;5093227;28;20266;-69
2021/04/26 07:10:06;;;;;;;3.92;2.50;;;8.90;99.90;;;;;;5074465;28;20204;-69
2021/04/26 07:12:31;;;;;;;3.25;1.90;;;8.90;99.90;;;;;;5092899;28;20272;-69
2021/04/26 07:14:57;;;;;;;3.90;2.10;;;9.10;99.90;;;;;;5092104;28;20274;-70
2021/04/26 07:17:23;;;;;;;7.27;2.07;;;9.10;99.90;;;;;;5092763;28;20368;-69
2021/04/26 07:19:50;;;;;;;2.50;1.50;;;9.30;99.90;;;;;;5093026;28;20209;-68
2021/04/26 07:22:16;;;;;;;2.67;1.30;;;9.50;99.90;;;;;;5092759;28;20497;-69
2021/04/26 07:24:41;;;;;;;2.93;1.67;;;9.60;99.90;;;;;;5092597;28;20508;-69
2021/04/26 07:27:07;;;;;;;3.90;1.80;;;9.60;99.90;;;;;;5092473;28;20214;-69
2021/04/26 07:29:33;;;;;;;2.80;1.50;;;9.70;99.90;;;;;;5093034;28;20600;-68
2021/04/26 07:31:58;;;;;;;5.30;1.90;;;9.90;99.90;;;;;;5093041;28;20175;-69
2021/04/26 07:34:24;;;;;;;3.63;1.53;;;9.70;99.90;;;;;;5092451;28;20202;-67
2021/04/26 07:36:49;;;;;;;3.30;1.30;;;9.90;99.90;;;;;;5092552;28;20178;-69
2021/04/26 07:39:15;;;;;;;3.13;1.70;;;10.00;99.90;;;;;;5091958;28;20168;-71
2021/04/26 07:41:41;;;;;;;2.73;1.40;;;10.20;99.90;;;;;;5091519;28;20178;-69
2021/04/26 07:44:08;;;;;;;2.50;1.60;;;10.20;99.90;;;;;;5092345;28;20817;-69
2021/04/26 07:46:33;;;;;;;4.73;1.50;;;10.30;99.90;;;;;;5092513;28;20787;-68
2021/04/26 07:48:59;;;;;;;4.63;1.60;;;10.30;99.90;;;;;;5092279;28;20441;-69
2021/04/26 07:51:24;;;;;;;3.63;1.50;;;10.40;99.90;;;;;;5092381;28;20225;-69
2021/04/26 07:53:50;;;;;;;3.83;1.53;;;10.10;99.90;;;;;;5093196;28;20191;-69
2021/04/26 07:56:16;;;;;;;1.60;1.03;;;10.40;99.90;;;;;;5096537;28;20648;-69
2021/04/26 07:58:42;;;;;;;2.80;1.27;;;10.50;99.90;;;;;;5096495;28;20470;-69
2021/04/26 08:01:07;;;;;;;2.50;1.10;;;10.50;99.90;;;;;;5097232;28;20166;-68
2021/04/26 08:03:33;;;;;;;3.43;1.20;;;10.50;99.90;;;;;;5096710;28;20911;-69
2021/04/26 08:05:58;;;;;;;2.73;1.00;;;10.80;99.90;;;;;;5096262;28;20659;-68
2021/04/26 08:08:24;;;;;;;2.90;1.30;;;10.60;99.90;;;;;;5096235;28;20214;-69
2021/04/26 08:10:50;;;;;;;3.63;1.20;;;10.90;99.90;;;;;;5096108;28;20214;-69
2021/04/26 08:13:16;;;;;;;3.60;1.00;;;11.00;99.90;;;;;;5096387;28;20195;-69
2021/04/26 08:15:42;;;;;;;5.30;1.20;;;10.80;99.90;;;;;;5096334;28;20542;-69
2021/04/26 08:18:08;;;;;;;3.30;1.53;;;10.80;99.90;;;;;;5095919;28;20433;-70
2021/04/26 08:20:35;;;;;;;4.03;1.53;;;11.20;99.90;;;;;;5096017;28;20256;-69
2021/04/26 08:23:01;;;;;;;6.60;1.57;;;11.30;99.90;;;;;;5096240;28;20182;-69
2021/04/26 08:25:27;;;;;;;4.50;1.30;;;11.30;99.90;;;;;;5094340;28;20384;-69
2021/04/26 08:27:52;;;;;;;2.20;1.53;;;11.40;99.90;;;;;;5096312;28;20771;-69
2021/04/26 08:30:18;;;;;;;1.93;1.20;;;11.70;99.90;;;;;;5095736;28;20254;-68
2021/04/26 08:32:44;;;;;;;3.80;1.47;;;11.90;99.90;;;;;;5094234;28;20254;-68
2021/04/26 08:35:09;;;;;;;3.63;1.20;;;11.80;99.90;;;;;;5095341;28;20222;-68
2021/04/26 08:37:35;;;;;;;2.23;1.20;;;12.00;99.90;;;;;;5095476;28;20205;-67
2021/04/26 08:40:00;;;;;;;3.00;1.30;;;12.00;99.90;;;;;;5095564;28;20174;-68
2021/04/26 08:42:26;;;;;;;2.53;1.20;;;11.60;99.90;;;;;;5095839;28;20221;-68
2021/04/26 08:44:52;;;;;;;6.13;1.60;;;11.60;99.90;;;;;;5095144;28;20335;-69
2021/04/26 08:47:22;;;;;;;3.70;1.83;;;12.10;99.90;;;;;;5095461;28;20500;-69
2021/04/26 08:49:48;;;;;;;3.00;1.67;;;12.30;99.90;;;;;;5095916;28;20497;-68
2021/04/26 08:52:13;;;;;;;3.00;1.60;;;12.00;99.90;;;;;;5095457;28;20397;-69
2021/04/26 08:54:39;;;;;;;5.83;1.57;;;11.80;99.90;;;;;;5095420;28;20430;-68
2021/04/26 08:57:05;;;;;;;4.03;1.80;;;12.10;99.90;;;;;;5095250;28;20201;-67
2021/04/26 08:59:30;;;;;;;4.63;1.70;;;12.40;99.90;;;;;;5095360;28;20179;-67
2021/04/26 09:02:05;;;;;;;2.77;1.70;;;12.40;99.90;;;;;;5095242;28;20843;-68
2021/04/26 09:04:36;;;;;;;5.73;1.87;;;12.40;99.90;;;;;;5095002;28;20187;-68
2021/04/26 09:07:04;;;;;;;4.00;1.47;;;12.20;99.90;;;;;;5094098;28;20445;-68
2021/04/26 09:09:52;;;;;;;2.20;1.27;;;12.60;99.90;;;;;;5095335;28;20578;-68
2021/04/26 09:12:28;;;;;;;2.77;1.13;;;13.00;99.90;;;;;;5095486;28;20855;-68
2021/04/26 09:14:59;;;;;;;2.27;1.27;;;13.30;99.90;;;;;;5095797;28;20452;-68
2021/04/26 09:17:34;;;;;;;1.97;1.10;;;13.00;99.90;;;;;;5095130;28;20397;-67
2021/04/26 09:20:04;;;;;;;3.97;1.80;;;13.30;99.90;;;;;;5095381;28;20390;-68
2021/04/26 09:22:43;;;;;;;3.47;1.13;;;13.50;99.90;;;;;;5095376;28;20389;-67
2021/04/26 09:25:33;;;;;;;1.73;1.10;;;13.30;99.90;;;;;;5094845;28;20429;-67
2021/04/26 09:28:08;;;;;;;2.43;1.37;;;13.00;99.90;;;;;;5094970;28;20905;-66
2021/04/26 09:30:38;;;;;;;2.60;1.27;;;12.80;99.90;;;;;;5094670;28;20451;-68
2021/04/26 09:33:30;;;;;;;5.30;1.57;;;13.20;99.90;;;;;;5094096;28;20390;-68
2021/04/26 09:36:01;;;;;;;2.43;1.30;;;13.50;99.90;;;;;;5094484;28;20856;-68
2021/04/26 09:38:32;;;;;;;10.00;1.93;;;13.80;99.90;;;;;;5094408;28;20406;-67
2021/04/26 09:41:07;;;;;;;2.50;1.20;;;14.00;99.90;;;;;;5093013;28;20402;-68
2021/04/26 09:43:32;;;;;;;2.33;1.07;;;13.40;99.90;;;;;;5093979;28;20413;-68
2021/04/26 09:45:58;;;;;;;2.23;1.70;;;13.50;99.90;;;;;;5094253;28;20414;-68
2021/04/26 09:48:26;;;;;;;2.57;1.10;;;14.00;99.90;;;;;;5094570;28;20171;-66
2021/04/26 09:50:56;;;;;;;3.93;1.47;;;13.50;99.90;;;;;;5094179;28;20164;-68
2021/04/26 09:53:35;;;;;;;2.73;1.30;;;13.50;99.90;;;;;;5094319;28;20436;-67
2021/04/26 09:56:09;;;;;;;1.43;1.20;;;13.20;99.90;;;;;;5094421;28;20516;-66
2021/04/26 09:58:37;;;;;;;5.43;1.57;;;14.40;99.90;;;;;;5093843;28;20414;-67
2021/04/26 10:01:02;;;;;;;3.40;1.23;;;14.40;99.90;;;;;;5094544;28;20376;-67
2021/04/26 10:03:28;;;;;;;2.70;1.57;;;14.20;99.90;;;;;;5095007;28;20434;-68
2021/04/26 10:05:54;;;;;;;2.90;1.40;;;14.50;99.90;;;;;;5094250;28;20542;-67
2021/04/26 10:08:20;;;;;;;2.37;1.23;;;14.70;99.90;;;;;;5093634;28;20463;-67
2021/04/26 10:10:46;;;;;;;3.13;2.00;;;15.40;99.90;;;;;;5093883;28;20874;-68
2021/04/26 10:13:12;;;;;;;4.33;1.47;;;15.50;99.90;;;;;;5093651;28;20175;-68
2021/04/26 10:15:39;;;;;;;2.93;1.40;;;15.20;99.90;;;;;;5093571;28;20191;-68
2021/04/26 10:18:08;;;;;;;3.67;2.10;;;15.40;99.90;;;;;;5093643;28;20408;-68
2021/04/26 10:20:42;;;;;;;2.87;1.20;;;15.40;99.90;;;;;;5092118;28;20403;-68
2021/04/26 10:23:35;;;;;;;2.17;0.90;;;14.60;99.90;;;;;;5093585;28;20441;-67
2021/04/26 10:26:01;;;;;;;7.00;1.73;;;15.30;99.90;;;;;;5093551;28;20878;-68
2021/04/26 10:28:30;;;;;;;2.67;1.60;;;14.90;99.90;;;;;;5093891;28;20495;-66
2021/04/26 10:31:03;;;;;;;2.30;1.03;;;15.10;99.90;;;;;;5094721;28;20187;-68
2021/04/26 10:33:54;;;;;;;2.10;1.50;;;15.00;99.90;;;;;;5092613;28;20437;-68
2021/04/26 10:36:43;;;;;;;2.73;1.23;;;15.70;99.90;;;;;;5093303;28;20451;-67
2021/04/26 10:39:20;;;;;;;2.93;1.10;;;15.90;99.90;;;;;;5093349;28;20413;-67
2021/04/26 10:41:48;;;;;;;4.87;1.27;;;16.10;99.90;;;;;;5093495;28;20372;-67
2021/04/26 10:44:15;;;;;;;7.73;1.90;;;15.40;99.90;;;;;;5092988;28;20503;-67
2021/04/26 10:46:41;;;;;;;3.67;1.30;;;15.90;99.90;;;;;;5092623;28;20406;-67
2021/04/26 10:49:06;;;;;;;3.43;1.30;;;16.20;99.90;;;;;;5092788;28;20808;-66
2021/04/26 10:51:36;;;;;;;3.90;1.40;;;16.40;99.90;;;;;;5091466;28;20601;-67
2021/04/26 10:54:02;;;;;;;2.20;1.17;;;15.90;99.90;;;;;;5093215;28;20183;-67
2021/04/26 10:56:30;;;;;;;3.80;1.40;;;16.30;99.90;;;;;;5092931;28;20845;-67
2021/04/26 10:59:13;;;;;;;2.47;1.60;;;16.70;99.90;;;;;;5092726;28;20401;-68
2021/04/26 11:01:50;;;;;;;4.93;1.43;;;17.20;99.90;;;;;;5093019;28;20437;-67
2021/04/26 11:04:16;;;;;;;3.40;1.53;;;17.00;99.90;;;;;;5092573;28;20509;-67
2021/04/26 11:07:02;;;;;;;3.10;1.30;;;17.50;99.90;;;;;;5091338;28;20444;-67
2021/04/26 11:09:35;;;;;;;2.50;1.23;;;17.30;99.90;;;;;;5092555;28;20509;-68
2021/04/26 11:12:03;;;;;;;4.27;1.20;;;16.80;99.90;;;;;;5093532;28;20755;-68
2021/04/26 11:14:29;;;;;;;2.20;1.60;;;17.00;99.90;;;;;;5093161;28;20425;-68
2021/04/26 11:16:58;;;;;;;3.20;1.37;;;17.30;99.90;;;;;;5093015;28;20924;-68
2021/04/26 11:19:26;;;;;;;5.83;1.60;;;17.30;99.90;;;;;;5092382;28;20451;-66
2021/04/26 11:21:53;;;;;;;4.73;1.23;;;17.80;99.90;;;;;;5092312;28;20415;-67
2021/04/26 11:24:27;;;;;;;3.47;1.37;;;17.80;99.90;;;;;;5092307;28;20540;-68
2021/04/26 11:27:08;;;;;;;5.20;1.77;;;18.10;99.90;;;;;;5092155;28;20410;-67
2021/04/26 11:29:57;;;;;;;3.53;1.40;;;18.00;99.90;;;;;;5091850;28;20409;-67
2021/04/26 11:32:25;;;;;;;1.67;1.20;;;18.30;99.90;;;;;;5081150;28;20932;-67
2021/04/26 11:34:53;;;;;;;2.47;1.33;;;17.50;99.90;;;;;;5092394;28;20514;-67
2021/04/26 11:37:26;;;;;;;2.43;1.57;;;18.10;99.90;;;;;;5092228;28;20435;-67
2021/04/26 11:39:53;;;;;;;14.37;3.20;;;18.10;99.90;;;;;;5092780;28;20818;-68
2021/04/26 11:42:20;;;;;;;1.60;1.13;;;17.60;99.90;;;;;;5090962;28;20415;-68
2021/04/26 11:44:47;;;;;;;2.00;1.20;;;17.50;99.90;;;;;;5092244;28;20425;-68
2021/04/26 11:47:14;;;;;;;4.93;1.70;;;18.30;99.90;;;;;;5092257;28;20440;-68
2021/04/26 11:49:45;;;;;;;5.93;1.67;;;18.80;99.90;;;;;;5092533;28;20406;-67
2021/04/26 11:52:18;;;;;;;4.83;1.30;;;18.20;99.90;;;;;;5092391;28;20406;-68
2021/04/26 11:54:45;;;;;;;3.37;1.57;;;18.50;99.90;;;;;;5092234;28;20467;-67
2021/04/26 11:57:15;;;;;;;4.93;1.30;;;18.80;99.90;;;;;;5091920;28;20500;-66
2021/04/26 11:59:52;;;;;;;1.40;0.93;;;18.70;99.90;;;;;;5090809;28;20440;-67
2021/04/26 12:02:26;;;;;;;3.87;1.00;;;17.70;99.90;;;;;;5092699;28;20870;-68
2021/04/26 12:04:53;;;;;;;4.30;1.20;;;18.50;99.90;;;;;;5091948;28;20534;-68
2021/04/26 12:07:19;;;;;;;3.83;1.20;;;19.10;99.90;;;;;;5092343;28;20936;-67
2021/04/26 12:09:56;;;;;;;4.33;1.73;;;18.50;99.90;;;;;;5091787;28;20431;-68
2021/04/26 12:12:23;;;;;;;2.60;1.17;;;19.00;99.90;;;;;;5092339;28;20390;-68
2021/04/26 12:15:23;;;;;;;2.40;1.33;;;19.60;99.90;;;;;;5091834;28;20548;-68
2021/04/26 12:17:50;;;;;;;7.27;1.90;;;19.60;99.90;;;;;;5048285;28;20419;-67
2021/04/26 12:20:28;;;;;;;1.90;1.30;;;19.50;99.90;;;;;;5092224;28;20889;-65
2021/04/26 12:23:05;;;;;;;1.97;1.47;;;19.50;99.90;;;;;;5091600;28;20397;-66
2021/04/26 12:25:39;;;;;;;3.77;1.10;;;19.00;99.90;;;;;;5091907;28;20448;-67
2021/04/26 12:28:07;;;;;;;1.63;1.37;;;19.30;99.90;;;;;;5091890;28;20409;-69
2021/04/26 12:30:41;;;;;;;5.77;1.40;;;19.60;99.90;;;;;;5090580;28;20415;-67
2021/04/26 12:33:23;;;;;;;6.10;1.30;;;19.50;99.90;;;;;;5092004;28;20849;-67
2021/04/26 12:35:50;;;;;;;2.20;1.43;;;19.40;99.90;;;;;;5091092;28;20873;-68
2021/04/26 12:38:15;;;;;;;14.30;2.57;;;19.20;99.90;;;;;;5090581;28;20443;-66
2021/04/26 12:40:41;;;;;;;2.83;1.20;;;19.70;99.90;;;;;;5091129;28;20414;-69
2021/04/26 12:43:11;;;;;;;6.70;1.80;;;19.50;99.90;;;;;;5094806;28;20170;-67
2021/04/26 12:45:42;;;;;;;2.43;1.53;;;19.70;99.90;;;;;;5095722;28;20639;-67
2021/04/26 12:48:19;;;;;;;3.87;1.77;;;19.70;99.90;;;;;;5095722;28;20396;-67
2021/04/26 12:50:50;;;;;;;2.23;1.13;;;19.00;99.90;;;;;;5095817;28;20402;-68
2021/04/26 12:53:34;;;;;;;1.70;1.33;;;18.70;99.90;;;;;;5095346;28;20438;-67
2021/04/26 12:56:11;;;;;;;2.90;1.47;;;18.80;99.90;;;;;;5095426;28;20492;-68
2021/04/26 12:58:51;;;;;;;3.00;1.30;;;20.50;99.90;;;;;;5093972;28;20446;-68